Terminal Aerodrome Forecast
Issued by NWS

Home | Current Version | Previous Version | Text Only | Print | Product List | Glossary On
Versions: 1 2 3 4 5 6 7 8 9 10 11 12 13 14 15 16 17 18 19 20 21 22 23 24 25 26 27 28 29 30 31 32 33 34 35 36 37 38 39 40 41 42 43 44 45 46
000
FTUS43 KILX 210139 AAA
TAFBMI
TAF AMD
KBMI 210139Z 2102/2124 26012KT P6SM -RA SCT025 OVC035
     FM210400 29010KT P6SM OVC025
     FM210800 33009KT P6SM BKN015
     FM211900 32011KT P6SM BKN045
     FM212200 30011KT P6SM SCT150=

USA.gov is the U.S. government's official web portal to all federal, state and local government web resources and services.